Vance Air Force Base
KEND : now visible

Airfield :











YOU CAN JOIN US ON...

 
LOGIN :

Register | Disclaimer

   EN    FR    IT 

 









Legend :    VFR   Marginal VFR   IFR   Intensive IFR   Very Intensive IFR
Visi :
Ceiling :
>= 8 km
>= 3000ft
5 to 8 km
1000 to 3000 ft
1500m to 5 km
500 to 1000 ft
800 to 1500m
200 to 500 ft
< 800m
< 200 ft
Symbols :   Thunderstorms  Fog  Heavy snow  Heavy precipitations  Wind > 20 kt






- Airport Elevation : 1307 ft


KEND - Vance Air Force Base

CURRENT METAR :
  • 291356Z AUTO 36009KT 10SM SCT009 OVC022 00/00 A3014 RMK AO2 CIG 009V022 CIG 021 RWY17C SLP220 T10041004

EXPIRED METARs :
  • 291351Z AUTO 01009KT 10SM SCT009 OVC022 00/00 A3014 RMK AO2 CIG 009V022 CIG 021 RWY17C SLP220
  • 291331Z AUTO 36008KT 10SM OVC010 00/00 A3013 RMK AO2 CIG 009 RWY17C SLP216
  • 291256Z AUTO 01008KT 10SM R35C/4500FT OVC008 00/00 A3012 RMK AO2 SNB11E21 SLP213 P0000 T10041004
  • 291201Z AUTO 34008KT 10SM R35C/4500FT BKN009 BKN029 M01/M01 M RMK AO2 CIG 009V029 SLPNO $
  • 291156Z AUTO 35008KT 10SM R35C/4500FT SCT008 BKN029 M01/M01 M RMK AO2 BKN V SCT CIG 009 RWY17C SLPNO 60000 70090 T10081008 10003 21008 $

TAF TAF KEND
Valid from the 29 at 10:00 until the 30 at 16:00 UTC


291000Z 2910/3016 34013KT 9999 BKN007 620073 QNH3005INS
TEMPO 2913/2916 6000 BR BKN005 620053
BECMG 2918/2919 35009KT 9999 BKN015 620153 QNH3008INS
BECMG 3002/3003 VRB06KT 8000 BR OVC006 620063 QNH3012INS
BECMG 3005/3006 VRB06KT 1600 BR OVC002 620024 QNH3013INS
BECMG 3011/3012 VRB06KT 0800 FZFG OVC002 650005 QNH3013INS TX03/2920Z TNM03/3010Z



MET'MAP, your aeronautical weather chart ! - Copyright ORBIFLY December 2007 - Disclaimer

ORBIFLY MET'MAP TEAM :

Programming & Development : Alexandra Zaïnal
Concept & original design : Baudouin d'Aumeries
Assistance for programming : Marc-Olivier Méhu
Technical & hardware support : Manuel Goepfert

Contact : metmap@orbifly.com




SOURCES & CREDITS :

   NOAA       Earth
Advisory